Terminal Aerodrome Forecast
Issued by NWS

Home | Current Version | Previous Version | Graphics & Text | Print | Product List | Glossary On
Versions: 1 2 3 4 5 6 7 8 9 10 11 12 13 14 15 16 17 18 19 20 21 22 23 24 25 26 27 28 29 30
000
FTUS43 KLOT 210858 AAA
TAFORD
TAF AMD
KORD 210858Z 2109/2212 15007KT 2SM BR SCT004 BKN008 OVC025
      TEMPO 2109/2111 1SM BR OVC004
     FM211300 16009KT 5SM BR SCT006 BKN025
     FM211500 17011KT P6SM SCT007 BKN015
     FM211700 19012G18KT P6SM SCT025
     FM220000 18006KT 6SM BR FEW010 SCT120
     FM220300 VRB03KT 3SM BR SCT004 BKN008
     FM220800 06004KT 3/4SM BR OVC004=

USA.gov is the U.S. government's official web portal to all federal, state and local government web resources and services.